createdAt,value
2023-05-07T00:00:35.092Z,60.10
2023-05-07T00:03:20.313Z,60.10
2023-05-07T00:05:47.534Z,60.20
2023-05-07T00:08:15.208Z,60.30
2023-05-07T00:10:42.342Z,60.40
2023-05-07T00:13:09.650Z,60.60
2023-05-07T00:15:36.816Z,60.70
2023-05-07T00:18:04.273Z,60.80
2023-05-07T00:20:31.380Z,61.00
2023-05-07T00:22:58.786Z,60.90
2023-05-07T00:25:25.874Z,61.10
2023-05-07T00:27:53.249Z,61.10
2023-05-07T00:30:20.326Z,61.20
2023-05-07T00:32:49.964Z,61.30
2023-05-07T00:35:17.147Z,61.40
2023-05-07T00:37:44.458Z,61.30
2023-05-07T00:40:11.940Z,61.40
2023-05-07T00:42:39.440Z,61.40
2023-05-07T00:45:08.833Z,61.60
2023-05-07T00:47:36.379Z,61.70
2023-05-07T00:50:04.475Z,61.70
2023-05-07T00:52:31.947Z,61.70
2023-05-07T00:55:00.790Z,61.80
2023-05-07T00:57:28.319Z,61.90
2023-05-07T00:59:56.298Z,62.60
2023-05-07T01:02:24.249Z,62.10
2023-05-07T01:04:51.558Z,62.40
2023-05-07T01:07:19.701Z,62.30
2023-05-07T01:09:46.686Z,62.40
2023-05-07T01:12:15.015Z,62.50
2023-05-07T01:14:42.479Z,62.70
2023-05-07T01:17:10.120Z,62.90
2023-05-07T01:19:37.293Z,63.00
2023-05-07T01:22:09.570Z,63.20
2023-05-07T01:24:46.432Z,63.40
2023-05-07T01:27:16.103Z,63.50
2023-05-07T01:29:43.823Z,63.80
2023-05-07T01:32:12.725Z,64.10
2023-05-07T01:34:40.838Z,64.10
2023-05-07T01:37:08.151Z,64.30
2023-05-07T01:39:40.063Z,64.40
2023-05-07T01:42:07.995Z,64.50
2023-05-07T01:44:35.127Z,64.70
2023-05-07T01:47:06.984Z,64.90
2023-05-07T01:49:34.063Z,65.10
2023-05-07T01:52:01.364Z,65.10
2023-05-07T01:54:31.646Z,65.60
2023-05-07T01:57:00.150Z,65.70
2023-05-07T01:59:27.531Z,65.80
2023-05-07T02:01:54.964Z,65.90
2023-05-07T02:04:22.495Z,66.10
2023-05-07T02:06:49.997Z,66.30
2023-05-07T02:09:18.620Z,66.40
2023-05-07T02:11:48.348Z,66.90
2023-05-07T02:14:16.407Z,67.00
2023-05-07T02:16:44.004Z,67.50
2023-05-07T02:19:13.499Z,67.70
2023-05-07T02:21:40.832Z,68.10
2023-05-07T02:24:08.031Z,68.30
2023-05-07T02:26:35.464Z,68.40
2023-05-07T02:29:02.534Z,68.80
2023-05-07T02:31:29.894Z,68.90
2023-05-07T02:33:56.899Z,69.40
2023-05-07T02:36:24.247Z,69.50
2023-05-07T02:38:57.458Z,69.60
2023-05-07T02:41:24.832Z,69.80
2023-05-07T02:43:52.031Z,70.10
2023-05-07T02:46:19.485Z,70.70
2023-05-07T02:48:52.011Z,71.10
2023-05-07T02:51:24.128Z,71.40
2023-05-07T02:53:54.122Z,71.90
2023-05-07T02:56:22.817Z,72.20
2023-05-07T02:58:49.821Z,72.80
2023-05-07T03:01:19.114Z,73.30
2023-05-07T03:04:06.722Z,74.50
2023-05-07T03:06:34.243Z,74.40
2023-05-07T03:09:01.351Z,74.60
2023-05-07T03:11:29.035Z,74.90
2023-05-07T03:13:56.089Z,75.20
2023-05-07T03:16:23.839Z,75.40
2023-05-07T03:18:51.140Z,75.70
2023-05-07T03:21:18.470Z,76.20
2023-05-07T03:23:45.453Z,76.70
2023-05-07T03:26:12.782Z,77.00
2023-05-07T03:28:39.838Z,77.30
2023-05-07T03:31:11.698Z,78.00
2023-05-07T03:33:57.349Z,78.90
2023-05-07T03:36:27.788Z,79.90
2023-05-07T03:38:56.108Z,80.00
2023-05-07T03:41:27.074Z,80.40
2023-05-07T03:43:54.765Z,81.80
2023-05-07T03:46:22.392Z,82.30
2023-05-07T03:48:49.586Z,82.60
2023-05-07T03:51:17.948Z,82.80
2023-05-07T03:53:44.941Z,83.40
2023-05-07T03:56:12.715Z,83.70
2023-05-07T03:58:41.537Z,84.10
2023-05-07T04:01:11.330Z,84.70
2023-05-07T04:03:38.741Z,85.00
2023-05-07T04:06:06.247Z,85.60
2023-05-07T04:08:35.501Z,86.00
2023-05-07T04:11:04.316Z,86.60
2023-05-07T04:13:33.522Z,87.50
2023-05-07T04:16:05.128Z,88.40
2023-05-07T04:18:35.284Z,89.00
2023-05-07T04:21:02.954Z,89.20
2023-05-07T04:23:30.143Z,90.00
2023-05-07T04:26:00.492Z,90.00
2023-05-07T04:28:33.874Z,90.40
2023-05-07T04:31:01.344Z,90.60
2023-05-07T04:33:29.446Z,90.80
2023-05-07T04:36:03.669Z,91.20
2023-05-07T04:38:32.671Z,91.20
2023-05-07T04:41:06.625Z,91.10
2023-05-07T04:43:37.790Z,91.10
2023-05-07T04:46:05.917Z,91.40
2023-05-07T04:48:33.123Z,91.30
2023-05-07T04:51:01.753Z,91.20
2023-05-07T04:53:28.770Z,91.10
2023-05-07T04:55:58.304Z,90.90
2023-05-07T04:58:32.636Z,90.90
2023-05-07T05:01:01.468Z,90.80
2023-05-07T05:03:29.309Z,90.50
2023-05-07T05:05:58.085Z,90.50
2023-05-07T05:08:28.832Z,89.90
2023-05-07T05:10:56.246Z,90.10
2023-05-07T05:13:23.443Z,89.20
2023-05-07T05:15:51.207Z,88.00
2023-05-07T05:18:18.254Z,87.80
2023-05-07T05:20:46.212Z,87.60
2023-05-07T05:23:13.475Z,87.30
2023-05-07T05:25:41.336Z,86.10
2023-05-07T05:28:11.171Z,85.20
2023-05-07T05:30:38.531Z,84.90
2023-05-07T05:33:05.717Z,84.70
2023-05-07T05:35:33.208Z,85.20
2023-05-07T05:38:04.429Z,84.10
2023-05-07T05:40:31.983Z,83.30
2023-05-07T05:42:59.204Z,83.40
2023-05-07T05:45:27.025Z,83.70
2023-05-07T05:47:54.316Z,83.30
2023-05-07T05:50:21.991Z,83.20
2023-05-07T05:52:49.306Z,83.00
2023-05-07T05:55:19.364Z,83.30
2023-05-07T05:57:47.118Z,81.80
2023-05-07T06:00:15.028Z,81.20
2023-05-07T06:02:48.261Z,81.30
2023-05-07T06:05:23.846Z,80.30
2023-05-07T06:07:53.788Z,80.20
2023-05-07T06:10:21.201Z,80.10
2023-05-07T06:12:48.348Z,79.80
2023-05-07T06:15:16.588Z,79.10
2023-05-07T06:17:44.225Z,79.40
2023-05-07T06:20:12.479Z,78.70
2023-05-07T06:22:40.863Z,78.80
2023-05-07T06:25:09.988Z,79.00
2023-05-07T06:27:38.041Z,79.10
2023-05-07T06:30:06.411Z,78.70
2023-05-07T06:32:33.501Z,78.60
2023-05-07T06:35:01.003Z,78.80
2023-05-07T06:37:28.224Z,78.70
2023-05-07T06:40:03.192Z,78.80
2023-05-07T06:42:32.050Z,78.00
2023-05-07T06:45:07.389Z,78.00
2023-05-07T06:47:34.439Z,77.90
2023-05-07T06:50:02.768Z,77.30
2023-05-07T06:52:32.920Z,76.00
2023-05-07T06:55:01.013Z,76.40
2023-05-07T06:57:28.144Z,76.00
2023-05-07T06:59:55.766Z,75.50
2023-05-07T07:02:23.001Z,74.00
2023-05-07T07:04:51.180Z,73.50
2023-05-07T07:07:18.340Z,73.20
2023-05-07T07:09:47.762Z,73.20
2023-05-07T07:12:17.900Z,73.20
2023-05-07T07:14:45.192Z,72.90
2023-05-07T07:17:13.471Z,72.70
2023-05-07T07:19:41.325Z,72.30
2023-05-07T07:22:09.086Z,72.30
2023-05-07T07:24:36.451Z,70.50
2023-05-07T07:27:06.377Z,70.80
2023-05-07T07:29:35.377Z,70.50
2023-05-07T07:32:02.865Z,70.00
2023-05-07T07:34:31.200Z,69.70
2023-05-07T07:36:58.815Z,69.30
2023-05-07T07:39:26.695Z,69.90
2023-05-07T07:41:56.644Z,69.70
2023-05-07T07:44:24.478Z,69.50
2023-05-07T07:46:57.286Z,68.40
2023-05-07T07:49:26.480Z,68.00
2023-05-07T07:51:53.809Z,67.30
2023-05-07T07:54:22.150Z,67.00
2023-05-07T07:56:49.499Z,66.50
2023-05-07T07:59:19.781Z,66.70
2023-05-07T08:01:50.576Z,66.30
2023-05-07T08:04:19.084Z,66.40
2023-05-07T08:06:46.503Z,66.50
2023-05-07T08:09:14.044Z,66.00
2023-05-07T08:11:42.424Z,65.60
2023-05-07T08:14:10.264Z,65.60
2023-05-07T08:16:37.691Z,66.00
2023-05-07T08:19:05.113Z,65.40
2023-05-07T08:21:34.638Z,64.40
2023-05-07T08:24:02.921Z,64.40
2023-05-07T08:26:30.311Z,64.40
2023-05-07T08:28:57.748Z,64.80
2023-05-07T08:31:25.495Z,64.90
2023-05-07T08:33:52.998Z,64.10
2023-05-07T08:36:20.457Z,64.40
2023-05-07T08:38:47.992Z,63.90
2023-05-07T08:41:15.253Z,63.50
2023-05-07T08:43:50.040Z,62.70
2023-05-07T08:46:22.542Z,62.10
2023-05-07T08:48:52.980Z,61.70
2023-05-07T08:51:22.022Z,61.20
2023-05-07T08:53:51.195Z,61.70
2023-05-07T08:56:24.605Z,62.00
2023-05-07T08:58:57.529Z,61.60
2023-05-07T09:01:25.997Z,61.20
2023-05-07T09:03:54.635Z,61.30
2023-05-07T09:06:23.725Z,60.80
2023-05-07T09:08:53.166Z,60.80
2023-05-07T09:11:22.888Z,60.50
2023-05-07T09:13:56.626Z,60.50
2023-05-07T09:16:26.257Z,60.90
2023-05-07T09:18:55.700Z,60.90
2023-05-07T09:21:24.065Z,60.20
2023-05-07T09:23:55.610Z,60.60
2023-05-07T09:26:27.059Z,60.90
2023-05-07T09:28:54.571Z,61.30
2023-05-07T09:31:24.569Z,60.20
2023-05-07T09:33:54.143Z,59.40
2023-05-07T09:36:21.704Z,58.90
2023-05-07T09:39:01.554Z,58.80
2023-05-07T09:41:35.011Z,57.40
2023-05-07T09:44:15.794Z,58.20
2023-05-07T09:46:53.176Z,57.10
2023-05-07T09:49:27.731Z,55.80
2023-05-07T09:52:02.322Z,55.20
2023-05-07T09:54:33.816Z,55.30
2023-05-07T09:57:04.169Z,55.20
2023-05-07T09:59:37.922Z,55.90
2023-05-07T10:02:11.392Z,56.40
2023-05-07T10:04:47.559Z,55.40
2023-05-07T10:07:17.678Z,54.40
2023-05-07T10:09:49.183Z,53.30
2023-05-07T10:12:25.438Z,53.10
2023-05-07T10:14:55.494Z,52.90
2023-05-07T10:17:24.759Z,53.70
2023-05-07T10:19:54.988Z,54.40
2023-05-07T10:22:25.777Z,54.90
2023-05-07T10:24:55.498Z,54.30
2023-05-07T10:27:23.980Z,52.70
2023-05-07T10:30:23.675Z,52.00
2023-05-07T10:32:54.921Z,50.90
2023-05-07T10:35:35.824Z,51.20
2023-05-07T10:38:05.156Z,49.70
2023-05-07T10:40:35.682Z,48.70
2023-05-07T10:43:10.675Z,46.00
2023-05-07T10:45:44.008Z,45.80
2023-05-07T10:51:22.876Z,46.30
2023-05-07T10:54:12.544Z,44.60
2023-05-07T10:56:48.726Z,45.30
2023-05-07T10:59:28.328Z,46.50
2023-05-07T11:02:00.728Z,46.50
2023-05-07T11:05:21.201Z,46.60
2023-05-07T11:07:56.904Z,46.50
2023-05-07T11:10:50.649Z,47.40
2023-05-07T11:13:51.414Z,47.40
2023-05-07T11:16:45.511Z,47.90
2023-05-07T11:19:49.871Z,48.00
2023-05-07T11:22:41.045Z,48.50
2023-05-07T11:25:20.983Z,48.60
2023-05-07T11:27:54.059Z,48.50
2023-05-07T11:30:21.916Z,48.30
2023-05-07T11:32:49.935Z,47.50
2023-05-07T11:35:18.952Z,48.60
2023-05-07T11:37:49.690Z,48.50
2023-05-07T11:40:17.911Z,47.80
2023-05-07T11:42:45.078Z,47.40
2023-05-07T11:45:12.934Z,47.80
2023-05-07T11:47:42.974Z,48.00
2023-05-07T11:50:12.172Z,48.60
2023-05-07T11:52:40.372Z,47.70
2023-05-07T11:55:09.191Z,47.50
2023-05-07T11:57:36.512Z,47.80
2023-05-07T12:00:05.725Z,47.60
2023-05-07T12:02:43.183Z,47.50
2023-05-07T12:05:11.087Z,48.00
2023-05-07T12:07:38.533Z,47.40
2023-05-07T12:10:07.684Z,47.10
2023-05-07T12:12:47.106Z,47.20
2023-05-07T12:15:17.720Z,47.50
2023-05-07T12:17:45.119Z,47.80
2023-05-07T12:20:13.014Z,47.60
2023-05-07T12:22:40.106Z,47.00
2023-05-07T12:25:08.088Z,47.10
2023-05-07T12:27:39.236Z,47.40
2023-05-07T12:30:07.206Z,45.60
2023-05-07T12:32:37.906Z,45.20
2023-05-07T12:35:07.526Z,45.40
2023-05-07T12:37:36.595Z,45.60
2023-05-07T12:40:11.028Z,45.40
2023-05-07T12:42:39.353Z,46.00
2023-05-07T12:45:14.850Z,46.00
2023-05-07T12:47:48.623Z,44.70
2023-05-07T12:50:17.543Z,43.50
2023-05-07T12:52:46.957Z,42.60
2023-05-07T12:55:16.545Z,42.50
2023-05-07T12:57:46.498Z,41.50
2023-05-07T13:00:14.712Z,41.10
2023-05-07T13:02:45.647Z,40.10
2023-05-07T13:05:13.781Z,39.00
2023-05-07T13:07:41.905Z,37.90
2023-05-07T13:10:09.898Z,37.60
2023-05-07T13:12:37.184Z,36.90
2023-05-07T13:15:04.775Z,35.30
2023-05-07T13:17:32.564Z,35.90
2023-05-07T13:20:00.345Z,35.00
2023-05-07T13:22:27.370Z,35.70
2023-05-07T13:24:54.845Z,34.80
2023-05-07T13:27:21.874Z,35.10
2023-05-07T13:29:49.276Z,35.30
2023-05-07T13:32:16.388Z,35.00
2023-05-07T13:34:43.762Z,34.10
2023-05-07T13:37:11.955Z,33.20
2023-05-07T13:39:39.602Z,33.90
2023-05-07T13:42:06.698Z,33.70
2023-05-07T13:44:34.346Z,34.00
2023-05-07T13:47:01.648Z,32.70
2023-05-07T13:49:29.236Z,32.30
2023-05-07T13:51:56.945Z,32.70
2023-05-07T13:54:25.061Z,33.70
2023-05-07T13:56:52.187Z,33.00
2023-05-07T13:59:19.567Z,33.50
2023-05-07T14:01:46.668Z,34.80
2023-05-07T14:04:13.986Z,34.00
2023-05-07T14:06:41.068Z,33.30
2023-05-07T14:09:08.582Z,32.80
2023-05-07T14:11:36.373Z,32.90
2023-05-07T14:14:03.883Z,33.40
2023-05-07T14:16:31.063Z,33.50
2023-05-07T14:18:58.843Z,34.50
2023-05-07T14:21:26.181Z,35.00
2023-05-07T14:23:53.767Z,35.30
2023-05-07T14:26:21.801Z,35.50
2023-05-07T14:28:49.123Z,35.70
2023-05-07T14:31:16.406Z,36.60
2023-05-07T14:33:44.237Z,35.80
2023-05-07T14:36:11.259Z,36.10
2023-05-07T14:38:39.173Z,36.30
2023-05-07T14:41:06.192Z,36.10
2023-05-07T14:43:33.494Z,35.90
2023-05-07T14:46:00.679Z,36.10
2023-05-07T14:48:28.141Z,36.60
2023-05-07T14:50:55.411Z,36.90
2023-05-07T14:53:23.109Z,37.80
2023-05-07T14:55:50.288Z,38.10
2023-05-07T14:58:17.684Z,39.20
2023-05-07T15:00:44.816Z,39.40
2023-05-07T15:03:12.609Z,39.50
2023-05-07T15:05:42.861Z,39.30
2023-05-07T15:08:11.125Z,39.40
2023-05-07T15:10:42.207Z,39.20
2023-05-07T15:13:15.318Z,38.80
2023-05-07T15:15:46.791Z,38.00
2023-05-07T15:18:14.612Z,37.40
2023-05-07T15:20:42.466Z,36.50
2023-05-07T15:23:11.046Z,35.80
2023-05-07T15:25:39.162Z,36.30
2023-05-07T15:28:06.703Z,36.50
2023-05-07T15:30:34.318Z,36.50
2023-05-07T15:33:02.742Z,36.00
2023-05-07T15:35:29.893Z,36.20
2023-05-07T15:37:57.474Z,36.10
2023-05-07T15:40:24.620Z,36.30
2023-05-07T15:42:57.050Z,36.30
2023-05-07T15:45:25.189Z,35.90
2023-05-07T15:47:52.693Z,35.80
2023-05-07T15:50:19.943Z,36.20
2023-05-07T15:52:47.557Z,36.10
2023-05-07T15:55:15.159Z,36.20
2023-05-07T15:57:42.496Z,36.60
2023-05-07T16:00:12.431Z,36.30
2023-05-07T16:02:40.350Z,36.50
2023-05-07T16:05:12.043Z,36.00
2023-05-07T16:07:41.015Z,36.30
2023-05-07T16:10:09.777Z,37.30
2023-05-07T16:12:37.278Z,36.90
2023-05-07T16:15:04.960Z,37.00
2023-05-07T16:17:32.338Z,36.90
2023-05-07T16:19:59.516Z,36.90
2023-05-07T16:22:26.999Z,37.00
2023-05-07T16:24:54.006Z,36.90
2023-05-07T16:27:21.649Z,36.70
2023-05-07T16:29:48.650Z,37.00
2023-05-07T16:32:16.183Z,36.90
2023-05-07T16:34:43.253Z,37.30
2023-05-07T16:37:10.775Z,37.10
2023-05-07T16:39:38.699Z,37.00
2023-05-07T16:42:06.259Z,37.70
2023-05-07T16:44:33.359Z,36.80
2023-05-07T16:47:00.649Z,37.00
2023-05-07T16:49:27.892Z,37.40
2023-05-07T16:51:55.399Z,36.80
2023-05-07T16:54:22.422Z,36.50
2023-05-07T16:56:50.759Z,36.40
2023-05-07T16:59:18.031Z,36.50
2023-05-07T17:01:45.583Z,36.40
2023-05-07T17:04:14.390Z,36.20
2023-05-07T17:06:41.770Z,36.20
2023-05-07T17:09:09.452Z,36.50
2023-05-07T17:11:36.740Z,36.50
2023-05-07T17:14:05.481Z,36.50
2023-05-07T17:16:33.338Z,36.50
2023-05-07T17:19:00.440Z,36.60
2023-05-07T17:21:27.910Z,36.70
2023-05-07T17:23:54.888Z,36.70
2023-05-07T17:26:22.410Z,36.80
2023-05-07T17:28:49.481Z,37.00
2023-05-07T17:31:17.004Z,37.30
2023-05-07T17:33:44.150Z,37.70
2023-05-07T17:36:11.597Z,38.20
2023-05-07T17:38:38.620Z,38.20
2023-05-07T17:41:06.261Z,38.40
2023-05-07T17:43:33.415Z,38.40
2023-05-07T17:46:00.834Z,38.50
2023-05-07T17:48:27.812Z,38.80
2023-05-07T17:51:01.730Z,39.20
2023-05-07T17:53:28.751Z,39.50
2023-05-07T17:55:56.164Z,39.60
2023-05-07T17:58:25.540Z,39.90
2023-05-07T18:00:55.495Z,40.10
2023-05-07T18:03:25.657Z,40.50
2023-05-07T18:05:53.226Z,40.90
2023-05-07T18:08:20.829Z,41.00
2023-05-07T18:10:48.158Z,41.30
2023-05-07T18:13:15.191Z,41.50
2023-05-07T18:15:42.649Z,41.60
2023-05-07T18:18:09.787Z,41.90
2023-05-07T18:20:37.226Z,42.10
2023-05-07T18:23:04.787Z,42.40
2023-05-07T18:25:32.100Z,42.50
2023-05-07T18:27:59.201Z,42.80
2023-05-07T18:30:26.950Z,43.00
2023-05-07T18:32:53.978Z,43.20
2023-05-07T18:35:21.800Z,43.40
2023-05-07T18:37:50.995Z,43.50
2023-05-07T18:40:18.437Z,43.70
2023-05-07T18:42:45.648Z,43.90
2023-05-07T18:45:13.055Z,44.10
2023-05-07T18:47:40.372Z,44.50
2023-05-07T18:50:08.391Z,44.60
2023-05-07T18:52:36.154Z,44.80
2023-05-07T18:55:04.623Z,45.10
2023-05-07T18:57:32.051Z,45.20
2023-05-07T18:59:59.371Z,45.50
2023-05-07T19:02:26.447Z,45.60
2023-05-07T19:04:53.846Z,45.80
2023-05-07T19:07:20.910Z,46.00
2023-05-07T19:10:01.045Z,46.00
2023-05-07T19:12:31.796Z,46.20
2023-05-07T19:14:59.100Z,46.40
2023-05-07T19:17:26.402Z,46.60
2023-05-07T19:19:53.750Z,46.90
2023-05-07T19:22:20.812Z,47.20
2023-05-07T19:24:48.285Z,47.40
2023-05-07T19:27:15.413Z,47.60
2023-05-07T19:29:43.392Z,47.90
2023-05-07T19:32:11.075Z,48.10
2023-05-07T19:34:38.654Z,48.30
2023-05-07T19:37:05.857Z,48.60
2023-05-07T19:39:33.212Z,48.70
2023-05-07T19:42:01.600Z,48.80
2023-05-07T19:44:29.281Z,48.90
2023-05-07T19:46:56.366Z,49.00
2023-05-07T19:49:23.698Z,49.10
2023-05-07T19:51:51.222Z,49.20
2023-05-07T19:54:18.522Z,49.40
2023-05-07T19:56:45.653Z,49.60
2023-05-07T19:59:13.219Z,49.90
2023-05-07T20:01:40.332Z,50.00
2023-05-07T20:04:08.112Z,50.20
2023-05-07T20:06:35.339Z,50.70
2023-05-07T20:09:02.691Z,51.20
2023-05-07T20:11:29.783Z,51.40
2023-05-07T20:13:57.210Z,51.30
2023-05-07T20:16:24.286Z,51.50
2023-05-07T20:18:52.054Z,51.70
2023-05-07T20:21:19.209Z,52.00
2023-05-07T20:23:46.633Z,52.30
2023-05-07T20:26:14.151Z,52.90
2023-05-07T20:28:41.408Z,53.30
2023-05-07T20:31:08.452Z,53.80
2023-05-07T20:33:35.853Z,55.00
2023-05-07T20:36:03.565Z,56.00
2023-05-07T20:38:33.888Z,55.90
2023-05-07T20:41:11.803Z,56.00
2023-05-07T20:43:39.392Z,56.80
2023-05-07T20:46:07.796Z,57.20
2023-05-07T20:48:35.725Z,58.00
2023-05-07T20:51:03.544Z,58.10
2023-05-07T20:53:31.744Z,58.00
2023-05-07T20:55:59.725Z,58.70
2023-05-07T20:58:28.781Z,59.00
2023-05-07T21:00:56.452Z,60.40
2023-05-07T21:03:24.316Z,60.40
2023-05-07T21:05:52.656Z,60.50
2023-05-07T21:08:20.353Z,60.70
2023-05-07T21:10:48.081Z,61.00
2023-05-07T21:13:15.921Z,60.70
2023-05-07T21:15:43.129Z,61.30
2023-05-07T21:18:11.458Z,61.60
2023-05-07T21:20:38.714Z,61.80
2023-05-07T21:23:17.316Z,62.60
2023-05-07T21:25:47.427Z,63.50
2023-05-07T21:28:14.779Z,63.20
2023-05-07T21:30:41.858Z,63.30
2023-05-07T21:33:09.240Z,63.60
2023-05-07T21:35:36.844Z,64.20
2023-05-07T21:38:04.345Z,65.10
2023-05-07T21:40:31.673Z,65.70
2023-05-07T21:43:00.434Z,65.70
2023-05-07T21:45:27.591Z,65.70
2023-05-07T21:47:55.506Z,65.70
2023-05-07T21:50:22.929Z,66.00
2023-05-07T21:52:50.395Z,66.30
2023-05-07T21:55:18.404Z,67.10
2023-05-07T21:57:53.728Z,68.10
2023-05-07T22:00:25.305Z,68.50
2023-05-07T22:02:52.673Z,68.10
2023-05-07T22:05:20.032Z,68.60
2023-05-07T22:07:47.357Z,68.80
2023-05-07T22:10:14.548Z,69.00
2023-05-07T22:12:41.978Z,69.50
2023-05-07T22:15:09.419Z,69.90
2023-05-07T22:17:36.740Z,70.60
2023-05-07T22:20:11.170Z,71.50
2023-05-07T22:22:55.911Z,72.60
2023-05-07T22:25:24.479Z,73.90
2023-05-07T22:27:52.364Z,74.50
2023-05-07T22:30:19.433Z,75.10
2023-05-07T22:32:46.783Z,76.50
2023-05-07T22:35:14.393Z,77.60
2023-05-07T22:37:41.673Z,79.00
2023-05-07T22:40:09.577Z,80.20
2023-05-07T22:42:37.198Z,81.10
2023-05-07T22:45:04.465Z,82.40
2023-05-07T22:47:31.950Z,84.20
2023-05-07T22:49:59.095Z,85.00
2023-05-07T22:52:26.396Z,86.30
2023-05-07T22:54:53.469Z,87.80
2023-05-07T22:57:20.940Z,90.00
2023-05-07T22:59:48.011Z,90.60
2023-05-07T23:02:15.410Z,91.10
2023-05-07T23:04:42.637Z,91.60
2023-05-07T23:07:10.026Z,92.10
2023-05-07T23:09:37.043Z,92.60
2023-05-07T23:12:05.002Z,93.00
2023-05-07T23:14:32.007Z,93.50
2023-05-07T23:16:59.724Z,93.90
2023-05-07T23:19:26.744Z,94.80
2023-05-07T23:21:54.126Z,95.00
2023-05-07T23:24:21.232Z,95.60
2023-05-07T23:26:48.522Z,96.10
2023-05-07T23:29:15.502Z,96.50
2023-05-07T23:31:43.104Z,96.90
2023-05-07T23:34:10.105Z,97.40
2023-05-07T23:36:37.376Z,97.60
2023-05-07T23:39:04.390Z,98.00
2023-05-07T23:41:31.971Z,98.50
2023-05-07T23:43:59.061Z,98.70
2023-05-07T23:46:26.901Z,98.90
2023-05-07T23:48:54.012Z,99.50
2023-05-07T23:51:21.276Z,99.70
2023-05-07T23:53:48.298Z,99.90
2023-05-07T23:56:16.223Z,99.90
2023-05-07T23:58:43.260Z,99.90
